sensor_id;sensor_type;location;lat;lon;timestamp;temperature;humidity
18103;DHT22;9178;51.120;6.192;2023-07-13T00:01:45;14.70;99.90
18103;DHT22;9178;51.120;6.192;2023-07-13T00:04:15;14.70;99.90
18103;DHT22;9178;51.120;6.192;2023-07-13T00:06:44;14.70;99.90
18103;DHT22;9178;51.120;6.192;2023-07-13T00:09:12;14.60;99.90
18103;DHT22;9178;51.120;6.192;2023-07-13T00:11:39;14.60;99.90
18103;DHT22;9178;51.120;6.192;2023-07-13T00:14:07;14.60;99.90
18103;DHT22;9178;51.120;6.192;2023-07-13T00:16:35;14.60;99.90
18103;DHT22;9178;51.120;6.192;2023-07-13T00:19:02;14.50;99.90
18103;DHT22;9178;51.120;6.192;2023-07-13T00:21:30;14.50;99.90
18103;DHT22;9178;51.120;6.192;2023-07-13T00:23:58;14.40;99.90
18103;DHT22;9178;51.120;6.192;2023-07-13T00:26:26;14.40;99.90
18103;DHT22;9178;51.120;6.192;2023-07-13T00:28:53;14.40;99.90
18103;DHT22;9178;51.120;6.192;2023-07-13T00:31:20;14.40;99.90
18103;DHT22;9178;51.120;6.192;2023-07-13T00:33:47;14.40;99.90
18103;DHT22;9178;51.120;6.192;2023-07-13T00:36:15;14.30;99.90
18103;DHT22;9178;51.120;6.192;2023-07-13T00:38:42;14.30;99.90
18103;DHT22;9178;51.120;6.192;2023-07-13T00:41:10;14.30;99.90
18103;DHT22;9178;51.120;6.192;2023-07-13T00:43:37;14.20;99.90
18103;DHT22;9178;51.120;6.192;2023-07-13T00:46:23;14.20;99.90
18103;DHT22;9178;51.120;6.192;2023-07-13T00:48:51;14.10;99.90
18103;DHT22;9178;51.120;6.192;2023-07-13T00:51:23;14.10;99.90
18103;DHT22;9178;51.120;6.192;2023-07-13T00:53:54;14.10;99.90
18103;DHT22;9178;51.120;6.192;2023-07-13T00:56:26;14.00;99.90
18103;DHT22;9178;51.120;6.192;2023-07-13T00:58:54;14.00;99.90
18103;DHT22;9178;51.120;6.192;2023-07-13T01:01:21;14.00;99.90
18103;DHT22;9178;51.120;6.192;2023-07-13T01:03:48;13.90;99.90
18103;DHT22;9178;51.120;6.192;2023-07-13T01:06:16;13.90;99.90
18103;DHT22;9178;51.120;6.192;2023-07-13T01:08:44;13.90;99.90
18103;DHT22;9178;51.120;6.192;2023-07-13T01:11:11;13.80;99.90
18103;DHT22;9178;51.120;6.192;2023-07-13T01:13:39;13.90;99.90
18103;DHT22;9178;51.120;6.192;2023-07-13T01:16:14;13.80;99.90
18103;DHT22;9178;51.120;6.192;2023-07-13T01:18:41;13.80;99.90
18103;DHT22;9178;51.120;6.192;2023-07-13T01:21:09;13.80;99.90
18103;DHT22;9178;51.120;6.192;2023-07-13T01:23:39;13.80;99.90
18103;DHT22;9178;51.120;6.192;2023-07-13T01:26:05;13.80;99.90
18103;DHT22;9178;51.120;6.192;2023-07-13T01:28:32;13.80;99.90
18103;DHT22;9178;51.120;6.192;2023-07-13T01:31:03;13.80;99.90
18103;DHT22;9178;51.120;6.192;2023-07-13T01:33:30;13.80;99.90
18103;DHT22;9178;51.120;6.192;2023-07-13T01:35:57;13.70;99.90
18103;DHT22;9178;51.120;6.192;2023-07-13T01:38:26;13.70;99.90
18103;DHT22;9178;51.120;6.192;2023-07-13T01:40:53;13.70;99.90
18103;DHT22;9178;51.120;6.192;2023-07-13T01:43:20;13.70;99.90
18103;DHT22;9178;51.120;6.192;2023-07-13T01:45:47;13.70;99.90
18103;DHT22;9178;51.120;6.192;2023-07-13T01:48:14;13.60;99.90
18103;DHT22;9178;51.120;6.192;2023-07-13T01:50:40;13.70;99.90
18103;DHT22;9178;51.120;6.192;2023-07-13T01:53:08;13.70;99.90
18103;DHT22;9178;51.120;6.192;2023-07-13T01:55:37;13.60;99.90
18103;DHT22;9178;51.120;6.192;2023-07-13T01:58:04;13.60;99.90
18103;DHT22;9178;51.120;6.192;2023-07-13T02:00:32;13.60;99.90
18103;DHT22;9178;51.120;6.192;2023-07-13T02:02:59;13.70;99.90
18103;DHT22;9178;51.120;6.192;2023-07-13T02:05:26;13.60;99.90
18103;DHT22;9178;51.120;6.192;2023-07-13T02:07:53;13.60;99.90
18103;DHT22;9178;51.120;6.192;2023-07-13T02:10:20;13.60;99.90
18103;DHT22;9178;51.120;6.192;2023-07-13T02:12:48;13.60;99.90
18103;DHT22;9178;51.120;6.192;2023-07-13T02:15:16;13.60;99.90
18103;DHT22;9178;51.120;6.192;2023-07-13T02:17:43;13.60;99.90
18103;DHT22;9178;51.120;6.192;2023-07-13T02:20:10;13.60;99.90
18103;DHT22;9178;51.120;6.192;2023-07-13T02:22:37;13.60;99.90
18103;DHT22;9178;51.120;6.192;2023-07-13T02:25:05;13.50;99.90
18103;DHT22;9178;51.120;6.192;2023-07-13T02:27:32;13.50;99.90
18103;DHT22;9178;51.120;6.192;2023-07-13T02:30:00;13.50;99.90
18103;DHT22;9178;51.120;6.192;2023-07-13T02:32:28;13.50;99.90
18103;DHT22;9178;51.120;6.192;2023-07-13T02:34:55;13.50;99.90
18103;DHT22;9178;51.120;6.192;2023-07-13T02:37:22;13.60;99.90
18103;DHT22;9178;51.120;6.192;2023-07-13T02:39:49;13.60;99.90
18103;DHT22;9178;51.120;6.192;2023-07-13T02:42:16;13.50;99.90
18103;DHT22;9178;51.120;6.192;2023-07-13T02:44:43;13.50;99.90
18103;DHT22;9178;51.120;6.192;2023-07-13T02:47:11;13.50;99.90
18103;DHT22;9178;51.120;6.192;2023-07-13T02:49:38;13.50;99.90
18103;DHT22;9178;51.120;6.192;2023-07-13T02:52:05;13.50;99.90
18103;DHT22;9178;51.120;6.192;2023-07-13T02:54:32;13.40;99.90
18103;DHT22;9178;51.120;6.192;2023-07-13T02:56:59;13.40;99.90
18103;DHT22;9178;51.120;6.192;2023-07-13T02:59:26;13.40;99.90
18103;DHT22;9178;51.120;6.192;2023-07-13T03:01:53;13.40;99.90
18103;DHT22;9178;51.120;6.192;2023-07-13T03:04:22;13.40;99.90
18103;DHT22;9178;51.120;6.192;2023-07-13T03:06:49;13.40;99.90
18103;DHT22;9178;51.120;6.192;2023-07-13T03:09:15;13.40;99.90
18103;DHT22;9178;51.120;6.192;2023-07-13T03:11:42;13.40;99.90
18103;DHT22;9178;51.120;6.192;2023-07-13T03:14:09;13.40;99.90
18103;DHT22;9178;51.120;6.192;2023-07-13T03:16:36;13.40;99.90
18103;DHT22;9178;51.120;6.192;2023-07-13T03:19:03;13.30;99.90
18103;DHT22;9178;51.120;6.192;2023-07-13T03:21:31;13.30;99.90
18103;DHT22;9178;51.120;6.192;2023-07-13T03:23:58;13.30;99.90
18103;DHT22;9178;51.120;6.192;2023-07-13T03:26:27;13.30;99.90
18103;DHT22;9178;51.120;6.192;2023-07-13T03:28:54;13.30;99.90
18103;DHT22;9178;51.120;6.192;2023-07-13T03:31:24;13.30;99.90
18103;DHT22;9178;51.120;6.192;2023-07-13T03:33:51;13.30;99.90
18103;DHT22;9178;51.120;6.192;2023-07-13T03:36:21;13.30;99.90
18103;DHT22;9178;51.120;6.192;2023-07-13T03:38:51;13.30;99.90
18103;DHT22;9178;51.120;6.192;2023-07-13T03:41:19;13.30;99.90
18103;DHT22;9178;51.120;6.192;2023-07-13T03:43:46;13.40;99.90
18103;DHT22;9178;51.120;6.192;2023-07-13T03:46:14;13.40;99.90
18103;DHT22;9178;51.120;6.192;2023-07-13T03:48:42;13.40;99.90
18103;DHT22;9178;51.120;6.192;2023-07-13T03:51:10;13.40;99.90
18103;DHT22;9178;51.120;6.192;2023-07-13T03:53:39;13.40;99.90
18103;DHT22;9178;51.120;6.192;2023-07-13T03:56:09;13.40;99.90
18103;DHT22;9178;51.120;6.192;2023-07-13T03:58:37;13.40;99.90
18103;DHT22;9178;51.120;6.192;2023-07-13T04:01:06;13.40;99.90
18103;DHT22;9178;51.120;6.192;2023-07-13T04:03:34;13.40;99.90
18103;DHT22;9178;51.120;6.192;2023-07-13T04:06:02;13.40;99.90
18103;DHT22;9178;51.120;6.192;2023-07-13T04:08:32;13.40;99.90
18103;DHT22;9178;51.120;6.192;2023-07-13T04:10:59;13.40;99.90
18103;DHT22;9178;51.120;6.192;2023-07-13T04:13:27;13.40;99.90
18103;DHT22;9178;51.120;6.192;2023-07-13T04:15:55;13.40;99.90
18103;DHT22;9178;51.120;6.192;2023-07-13T04:18:22;13.50;99.90
18103;DHT22;9178;51.120;6.192;2023-07-13T04:20:49;13.50;99.90
18103;DHT22;9178;51.120;6.192;2023-07-13T04:23:16;13.60;99.90
18103;DHT22;9178;51.120;6.192;2023-07-13T04:25:44;13.60;99.90
18103;DHT22;9178;51.120;6.192;2023-07-13T04:28:11;13.70;99.90
18103;DHT22;9178;51.120;6.192;2023-07-13T04:30:39;13.70;99.90
18103;DHT22;9178;51.120;6.192;2023-07-13T04:33:06;13.80;99.90
18103;DHT22;9178;51.120;6.192;2023-07-13T04:35:34;13.80;99.90
18103;DHT22;9178;51.120;6.192;2023-07-13T04:38:01;13.90;99.90
18103;DHT22;9178;51.120;6.192;2023-07-13T04:40:28;14.00;99.90
18103;DHT22;9178;51.120;6.192;2023-07-13T04:42:55;14.10;99.90
18103;DHT22;9178;51.120;6.192;2023-07-13T04:45:23;14.10;99.90
18103;DHT22;9178;51.120;6.192;2023-07-13T04:47:52;14.20;99.90
18103;DHT22;9178;51.120;6.192;2023-07-13T04:50:19;14.30;99.90
18103;DHT22;9178;51.120;6.192;2023-07-13T04:52:49;14.40;99.90
18103;DHT22;9178;51.120;6.192;2023-07-13T04:55:16;14.40;99.90
18103;DHT22;9178;51.120;6.192;2023-07-13T04:57:43;14.40;99.90
18103;DHT22;9178;51.120;6.192;2023-07-13T05:00:11;14.50;99.90
18103;DHT22;9178;51.120;6.192;2023-07-13T05:02:39;14.50;99.90
18103;DHT22;9178;51.120;6.192;2023-07-13T05:05:08;14.60;99.90
18103;DHT22;9178;51.120;6.192;2023-07-13T05:07:35;14.70;99.90
18103;DHT22;9178;51.120;6.192;2023-07-13T05:10:02;14.80;99.90
18103;DHT22;9178;51.120;6.192;2023-07-13T05:12:30;14.80;99.90
18103;DHT22;9178;51.120;6.192;2023-07-13T05:14:57;15.00;99.90
18103;DHT22;9178;51.120;6.192;2023-07-13T05:17:24;15.00;99.90
18103;DHT22;9178;51.120;6.192;2023-07-13T05:19:51;15.10;99.90
18103;DHT22;9178;51.120;6.192;2023-07-13T05:22:19;15.20;99.90
18103;DHT22;9178;51.120;6.192;2023-07-13T05:24:46;15.20;99.90
18103;DHT22;9178;51.120;6.192;2023-07-13T05:27:12;15.30;99.90
18103;DHT22;9178;51.120;6.192;2023-07-13T05:29:39;15.40;99.90
18103;DHT22;9178;51.120;6.192;2023-07-13T05:32:07;15.40;99.90
18103;DHT22;9178;51.120;6.192;2023-07-13T05:34:34;15.50;99.90
18103;DHT22;9178;51.120;6.192;2023-07-13T05:37:00;15.50;99.90
18103;DHT22;9178;51.120;6.192;2023-07-13T05:39:29;15.60;99.90
18103;DHT22;9178;51.120;6.192;2023-07-13T05:41:55;15.60;99.90
18103;DHT22;9178;51.120;6.192;2023-07-13T05:44:22;15.70;99.90
18103;DHT22;9178;51.120;6.192;2023-07-13T05:46:49;15.80;99.90
18103;DHT22;9178;51.120;6.192;2023-07-13T05:49:16;15.90;99.90
18103;DHT22;9178;51.120;6.192;2023-07-13T05:51:43;16.00;99.90
18103;DHT22;9178;51.120;6.192;2023-07-13T05:54:10;16.10;99.90
18103;DHT22;9178;51.120;6.192;2023-07-13T05:56:38;16.20;99.90
18103;DHT22;9178;51.120;6.192;2023-07-13T05:59:08;16.30;99.90
18103;DHT22;9178;51.120;6.192;2023-07-13T06:01:35;16.40;99.90
18103;DHT22;9178;51.120;6.192;2023-07-13T06:04:02;16.50;99.90
18103;DHT22;9178;51.120;6.192;2023-07-13T06:06:29;16.50;99.90
18103;DHT22;9178;51.120;6.192;2023-07-13T06:08:59;16.50;99.90
18103;DHT22;9178;51.120;6.192;2023-07-13T06:11:28;16.50;99.90
18103;DHT22;9178;51.120;6.192;2023-07-13T06:13:56;16.50;99.90
18103;DHT22;9178;51.120;6.192;2023-07-13T06:16:23;16.60;99.90
18103;DHT22;9178;51.120;6.192;2023-07-13T06:18:52;16.60;99.90
18103;DHT22;9178;51.120;6.192;2023-07-13T06:21:21;16.60;99.90
18103;DHT22;9178;51.120;6.192;2023-07-13T06:23:49;16.60;99.90
18103;DHT22;9178;51.120;6.192;2023-07-13T06:26:17;16.60;99.90
18103;DHT22;9178;51.120;6.192;2023-07-13T06:28:45;16.60;99.90
18103;DHT22;9178;51.120;6.192;2023-07-13T06:31:14;16.60;99.90
18103;DHT22;9178;51.120;6.192;2023-07-13T06:33:41;16.70;99.90
18103;DHT22;9178;51.120;6.192;2023-07-13T06:36:10;16.70;99.90
18103;DHT22;9178;51.120;6.192;2023-07-13T06:38:37;16.80;99.90
18103;DHT22;9178;51.120;6.192;2023-07-13T06:41:05;16.80;99.90
18103;DHT22;9178;51.120;6.192;2023-07-13T06:43:32;16.80;99.90
18103;DHT22;9178;51.120;6.192;2023-07-13T06:45:59;16.90;99.90
18103;DHT22;9178;51.120;6.192;2023-07-13T06:48:28;16.90;99.90
18103;DHT22;9178;51.120;6.192;2023-07-13T06:50:55;17.00;99.90
18103;DHT22;9178;51.120;6.192;2023-07-13T06:53:23;17.10;99.90
18103;DHT22;9178;51.120;6.192;2023-07-13T06:55:50;17.10;99.90
18103;DHT22;9178;51.120;6.192;2023-07-13T06:58:18;17.20;99.90
18103;DHT22;9178;51.120;6.192;2023-07-13T07:00:46;17.30;99.90
18103;DHT22;9178;51.120;6.192;2023-07-13T07:03:13;17.30;99.90
18103;DHT22;9178;51.120;6.192;2023-07-13T07:05:41;17.50;99.90
18103;DHT22;9178;51.120;6.192;2023-07-13T07:08:08;17.50;99.90
18103;DHT22;9178;51.120;6.192;2023-07-13T07:10:35;17.50;99.90
18103;DHT22;9178;51.120;6.192;2023-07-13T07:13:03;17.50;99.90
18103;DHT22;9178;51.120;6.192;2023-07-13T07:15:30;17.60;99.90
18103;DHT22;9178;51.120;6.192;2023-07-13T07:17:57;17.70;99.90
18103;DHT22;9178;51.120;6.192;2023-07-13T07:20:24;17.70;99.90
18103;DHT22;9178;51.120;6.192;2023-07-13T07:22:53;17.70;99.90
18103;DHT22;9178;51.120;6.192;2023-07-13T07:25:20;17.70;99.90
18103;DHT22;9178;51.120;6.192;2023-07-13T07:27:47;17.80;99.90
18103;DHT22;9178;51.120;6.192;2023-07-13T07:30:14;17.80;99.90
18103;DHT22;9178;51.120;6.192;2023-07-13T07:32:41;17.80;99.90
18103;DHT22;9178;51.120;6.192;2023-07-13T07:35:09;17.90;99.90
18103;DHT22;9178;51.120;6.192;2023-07-13T07:38:05;18.00;99.90
18103;DHT22;9178;51.120;6.192;2023-07-13T07:40:36;18.00;99.90
18103;DHT22;9178;51.120;6.192;2023-07-13T07:43:04;18.10;99.90
18103;DHT22;9178;51.120;6.192;2023-07-13T07:45:33;18.10;99.90
18103;DHT22;9178;51.120;6.192;2023-07-13T07:48:00;18.20;99.90
18103;DHT22;9178;51.120;6.192;2023-07-13T07:50:28;18.30;99.90
18103;DHT22;9178;51.120;6.192;2023-07-13T07:52:55;18.40;99.90
18103;DHT22;9178;51.120;6.192;2023-07-13T07:55:24;18.50;99.90
18103;DHT22;9178;51.120;6.192;2023-07-13T07:57:52;18.60;99.90
18103;DHT22;9178;51.120;6.192;2023-07-13T08:00:19;18.70;99.90
18103;DHT22;9178;51.120;6.192;2023-07-13T08:02:47;18.80;99.90
18103;DHT22;9178;51.120;6.192;2023-07-13T08:05:15;18.90;99.90
18103;DHT22;9178;51.120;6.192;2023-07-13T08:07:42;19.00;99.90
18103;DHT22;9178;51.120;6.192;2023-07-13T08:10:09;19.00;99.90
18103;DHT22;9178;51.120;6.192;2023-07-13T08:12:38;19.00;99.90
18103;DHT22;9178;51.120;6.192;2023-07-13T08:15:06;19.10;99.90
18103;DHT22;9178;51.120;6.192;2023-07-13T08:17:36;19.20;99.90
18103;DHT22;9178;51.120;6.192;2023-07-13T08:20:03;19.20;99.90
18103;DHT22;9178;51.120;6.192;2023-07-13T08:22:31;19.30;99.90
18103;DHT22;9178;51.120;6.192;2023-07-13T08:24:59;19.30;99.90
18103;DHT22;9178;51.120;6.192;2023-07-13T08:27:27;19.30;99.90
18103;DHT22;9178;51.120;6.192;2023-07-13T08:29:56;19.30;99.90
18103;DHT22;9178;51.120;6.192;2023-07-13T08:32:23;19.40;99.90
18103;DHT22;9178;51.120;6.192;2023-07-13T08:34:51;19.40;99.90
18103;DHT22;9178;51.120;6.192;2023-07-13T08:37:18;19.50;99.90
18103;DHT22;9178;51.120;6.192;2023-07-13T08:39:45;19.70;99.90
18103;DHT22;9178;51.120;6.192;2023-07-13T08:42:22;19.80;99.90
18103;DHT22;9178;51.120;6.192;2023-07-13T08:45:00;20.10;99.90
18103;DHT22;9178;51.120;6.192;2023-07-13T08:47:31;20.20;99.90
18103;DHT22;9178;51.120;6.192;2023-07-13T08:49:59;20.20;99.90
18103;DHT22;9178;51.120;6.192;2023-07-13T08:52:32;20.10;99.90
18103;DHT22;9178;51.120;6.192;2023-07-13T08:55:04;20.20;99.90
18103;DHT22;9178;51.120;6.192;2023-07-13T08:57:33;20.30;99.90
18103;DHT22;9178;51.120;6.192;2023-07-13T09:00:03;20.40;99.90
18103;DHT22;9178;51.120;6.192;2023-07-13T09:02:41;20.40;99.90
18103;DHT22;9178;51.120;6.192;2023-07-13T09:05:12;20.60;99.90
18103;DHT22;9178;51.120;6.192;2023-07-13T09:07:52;20.80;99.90
18103;DHT22;9178;51.120;6.192;2023-07-13T09:10:27;20.90;99.90
18103;DHT22;9178;51.120;6.192;2023-07-13T09:13:03;21.00;99.90
18103;DHT22;9178;51.120;6.192;2023-07-13T09:15:38;21.30;99.90
18103;DHT22;9178;51.120;6.192;2023-07-13T09:18:10;21.50;99.90
18103;DHT22;9178;51.120;6.192;2023-07-13T09:20:41;21.40;99.90
18103;DHT22;9178;51.120;6.192;2023-07-13T09:23:14;21.40;99.90
18103;DHT22;9178;51.120;6.192;2023-07-13T09:25:45;21.60;99.90
18103;DHT22;9178;51.120;6.192;2023-07-13T09:28:16;21.50;99.90
18103;DHT22;9178;51.120;6.192;2023-07-13T09:30:51;21.40;99.90
18103;DHT22;9178;51.120;6.192;2023-07-13T09:33:20;21.80;99.90
18103;DHT22;9178;51.120;6.192;2023-07-13T09:35:47;22.30;99.90
18103;DHT22;9178;51.120;6.192;2023-07-13T09:38:16;22.40;99.90
18103;DHT22;9178;51.120;6.192;2023-07-13T09:40:56;22.80;99.90
18103;DHT22;9178;51.120;6.192;2023-07-13T09:43:25;23.40;99.90
18103;DHT22;9178;51.120;6.192;2023-07-13T09:45:55;23.80;99.90
18103;DHT22;9178;51.120;6.192;2023-07-13T09:48:22;23.90;99.90
18103;DHT22;9178;51.120;6.192;2023-07-13T09:50:54;23.90;99.90
18103;DHT22;9178;51.120;6.192;2023-07-13T09:53:22;24.20;99.90
18103;DHT22;9178;51.120;6.192;2023-07-13T09:55:50;24.60;99.90
18103;DHT22;9178;51.120;6.192;2023-07-13T09:58:20;24.90;99.90
18103;DHT22;9178;51.120;6.192;2023-07-13T10:00:56;24.90;99.90
18103;DHT22;9178;51.120;6.192;2023-07-13T10:03:25;25.00;99.90
18103;DHT22;9178;51.120;6.192;2023-07-13T10:05:53;25.10;99.90
18103;DHT22;9178;51.120;6.192;2023-07-13T10:08:28;25.20;99.90
18103;DHT22;9178;51.120;6.192;2023-07-13T10:11:00;24.80;99.90
18103;DHT22;9178;51.120;6.192;2023-07-13T10:13:32;24.40;99.90
18103;DHT22;9178;51.120;6.192;2023-07-13T10:16:02;24.60;99.90
18103;DHT22;9178;51.120;6.192;2023-07-13T10:18:38;25.10;99.90
18103;DHT22;9178;51.120;6.192;2023-07-13T10:21:14;25.30;99.90
18103;DHT22;9178;51.120;6.192;2023-07-13T10:23:43;25.30;99.90
18103;DHT22;9178;51.120;6.192;2023-07-13T10:26:16;25.60;99.90
18103;DHT22;9178;51.120;6.192;2023-07-13T10:28:45;25.60;99.90
18103;DHT22;9178;51.120;6.192;2023-07-13T10:31:15;25.60;99.90
18103;DHT22;9178;51.120;6.192;2023-07-13T10:33:43;25.50;99.90
18103;DHT22;9178;51.120;6.192;2023-07-13T10:36:14;25.40;99.90
18103;DHT22;9178;51.120;6.192;2023-07-13T10:38:43;25.30;99.90
18103;DHT22;9178;51.120;6.192;2023-07-13T10:41:17;25.30;99.90
18103;DHT22;9178;51.120;6.192;2023-07-13T10:43:47;25.30;99.90
18103;DHT22;9178;51.120;6.192;2023-07-13T10:46:20;25.30;99.90
18103;DHT22;9178;51.120;6.192;2023-07-13T10:48:51;25.70;99.90
18103;DHT22;9178;51.120;6.192;2023-07-13T10:51:19;26.20;99.90
18103;DHT22;9178;51.120;6.192;2023-07-13T10:53:48;26.50;99.90
18103;DHT22;9178;51.120;6.192;2023-07-13T10:56:35;26.40;99.90
18103;DHT22;9178;51.120;6.192;2023-07-13T10:59:10;26.60;99.90
18103;DHT22;9178;51.120;6.192;2023-07-13T11:01:49;26.50;99.90
18103;DHT22;9178;51.120;6.192;2023-07-13T11:04:18;26.90;99.90
18103;DHT22;9178;51.120;6.192;2023-07-13T11:06:49;27.10;99.90
18103;DHT22;9178;51.120;6.192;2023-07-13T11:09:30;27.30;99.90
18103;DHT22;9178;51.120;6.192;2023-07-13T11:11:59;27.10;99.90
18103;DHT22;9178;51.120;6.192;2023-07-13T11:14:30;26.90;99.90
18103;DHT22;9178;51.120;6.192;2023-07-13T11:16:58;27.10;99.90
18103;DHT22;9178;51.120;6.192;2023-07-13T11:19:38;27.60;99.90
18103;DHT22;9178;51.120;6.192;2023-07-13T11:22:41;28.00;98.00
18103;DHT22;9178;51.120;6.192;2023-07-13T11:25:27;28.20;99.90
18103;DHT22;9178;51.120;6.192;2023-07-13T11:28:07;28.80;98.50
18103;DHT22;9178;51.120;6.192;2023-07-13T11:30:41;28.70;99.60
18103;DHT22;9178;51.120;6.192;2023-07-13T11:33:17;29.00;99.50
18103;DHT22;9178;51.120;6.192;2023-07-13T11:35:51;29.40;98.20
18103;DHT22;9178;51.120;6.192;2023-07-13T11:38:21;29.10;97.30
18103;DHT22;9178;51.120;6.192;2023-07-13T11:40:51;29.40;92.50
18103;DHT22;9178;51.120;6.192;2023-07-13T11:43:22;29.60;93.90
18103;DHT22;9178;51.120;6.192;2023-07-13T11:45:50;30.00;94.60
18103;DHT22;9178;51.120;6.192;2023-07-13T11:48:28;30.40;91.70
18103;DHT22;9178;51.120;6.192;2023-07-13T11:50:59;30.50;86.80
18103;DHT22;9178;51.120;6.192;2023-07-13T11:53:29;30.40;88.40
18103;DHT22;9178;51.120;6.192;2023-07-13T11:56:00;29.80;89.50
18103;DHT22;9178;51.120;6.192;2023-07-13T11:58:27;29.50;90.00
18103;DHT22;9178;51.120;6.192;2023-07-13T12:00:59;29.40;90.80
18103;DHT22;9178;51.120;6.192;2023-07-13T12:03:29;29.10;90.50
18103;DHT22;9178;51.120;6.192;2023-07-13T12:05:58;28.80;91.50
18103;DHT22;9178;51.120;6.192;2023-07-13T12:08:25;29.00;92.00
18103;DHT22;9178;51.120;6.192;2023-07-13T12:11:14;29.00;93.00
18103;DHT22;9178;51.120;6.192;2023-07-13T12:13:43;28.60;91.90
18103;DHT22;9178;51.120;6.192;2023-07-13T12:16:15;28.30;90.00
18103;DHT22;9178;51.120;6.192;2023-07-13T12:18:44;28.30;90.00
18103;DHT22;9178;51.120;6.192;2023-07-13T12:21:17;28.90;91.50
18103;DHT22;9178;51.120;6.192;2023-07-13T12:23:47;28.90;85.60
18103;DHT22;9178;51.120;6.192;2023-07-13T12:26:15;28.30;80.10
18103;DHT22;9178;51.120;6.192;2023-07-13T12:28:46;27.90;86.00
18103;DHT22;9178;51.120;6.192;2023-07-13T12:31:33;27.70;86.30
18103;DHT22;9178;51.120;6.192;2023-07-13T12:34:03;27.20;88.10
18103;DHT22;9178;51.120;6.192;2023-07-13T12:36:33;27.10;89.70
18103;DHT22;9178;51.120;6.192;2023-07-13T12:39:04;27.60;93.00
18103;DHT22;9178;51.120;6.192;2023-07-13T12:41:32;27.70;85.10
18103;DHT22;9178;51.120;6.192;2023-07-13T12:44:03;27.30;90.40
18103;DHT22;9178;51.120;6.192;2023-07-13T12:46:31;26.70;90.20
18103;DHT22;9178;51.120;6.192;2023-07-13T12:48:58;26.40;91.00
18103;DHT22;9178;51.120;6.192;2023-07-13T12:51:27;26.80;92.70
18103;DHT22;9178;51.120;6.192;2023-07-13T12:54:04;27.10;90.70
18103;DHT22;9178;51.120;6.192;2023-07-13T12:56:32;27.30;90.10
18103;DHT22;9178;51.120;6.192;2023-07-13T12:59:04;27.30;92.20
18103;DHT22;9178;51.120;6.192;2023-07-13T13:01:34;27.10;91.80
18103;DHT22;9178;51.120;6.192;2023-07-13T13:04:03;27.00;91.50
18103;DHT22;9178;51.120;6.192;2023-07-13T13:06:33;27.00;92.50
18103;DHT22;9178;51.120;6.192;2023-07-13T13:09:01;26.80;93.00
18103;DHT22;9178;51.120;6.192;2023-07-13T13:11:30;26.80;93.30
18103;DHT22;9178;51.120;6.192;2023-07-13T13:13:58;27.00;90.60
18103;DHT22;9178;51.120;6.192;2023-07-13T13:16:31;26.90;92.80
18103;DHT22;9178;51.120;6.192;2023-07-13T13:19:05;27.20;91.30
18103;DHT22;9178;51.120;6.192;2023-07-13T13:21:39;27.40;92.00
18103;DHT22;9178;51.120;6.192;2023-07-13T13:24:11;28.10;90.80
18103;DHT22;9178;51.120;6.192;2023-07-13T13:26:38;28.60;83.80
18103;DHT22;9178;51.120;6.192;2023-07-13T13:29:11;28.50;89.40
18103;DHT22;9178;51.120;6.192;2023-07-13T13:31:40;28.70;85.30
18103;DHT22;9178;51.120;6.192;2023-07-13T13:34:09;28.90;85.20
18103;DHT22;9178;51.120;6.192;2023-07-13T13:36:37;28.80;84.00
18103;DHT22;9178;51.120;6.192;2023-07-13T13:39:19;29.00;81.50
18103;DHT22;9178;51.120;6.192;2023-07-13T13:41:48;28.70;85.10
18103;DHT22;9178;51.120;6.192;2023-07-13T13:44:16;28.30;90.10
18103;DHT22;9178;51.120;6.192;2023-07-13T13:46:44;28.10;89.80
18103;DHT22;9178;51.120;6.192;2023-07-13T13:49:14;28.30;91.20
18103;DHT22;9178;51.120;6.192;2023-07-13T13:51:41;28.40;83.40
18103;DHT22;9178;51.120;6.192;2023-07-13T13:54:12;28.00;85.70
18103;DHT22;9178;51.120;6.192;2023-07-13T13:56:42;27.50;81.70
18103;DHT22;9178;51.120;6.192;2023-07-13T13:59:09;27.10;82.50
18103;DHT22;9178;51.120;6.192;2023-07-13T14:01:36;26.60;89.10
18103;DHT22;9178;51.120;6.192;2023-07-13T14:04:04;26.20;90.20
18103;DHT22;9178;51.120;6.192;2023-07-13T14:06:32;25.80;85.10
18103;DHT22;9178;51.120;6.192;2023-07-13T14:09:02;25.70;91.00
18103;DHT22;9178;51.120;6.192;2023-07-13T14:11:31;25.70;90.80
18103;DHT22;9178;51.120;6.192;2023-07-13T14:13:59;25.70;93.00
18103;DHT22;9178;51.120;6.192;2023-07-13T14:16:29;25.70;92.20
18103;DHT22;9178;51.120;6.192;2023-07-13T14:18:57;25.60;92.40
18103;DHT22;9178;51.120;6.192;2023-07-13T14:21:27;25.50;91.30
18103;DHT22;9178;51.120;6.192;2023-07-13T14:23:54;25.40;92.90
18103;DHT22;9178;51.120;6.192;2023-07-13T14:26:23;25.20;92.60
18103;DHT22;9178;51.120;6.192;2023-07-13T14:28:54;24.90;94.20
18103;DHT22;9178;51.120;6.192;2023-07-13T14:31:23;24.60;95.70
18103;DHT22;9178;51.120;6.192;2023-07-13T14:33:50;24.50;95.40
18103;DHT22;9178;51.120;6.192;2023-07-13T14:36:27;24.20;94.50
18103;DHT22;9178;51.120;6.192;2023-07-13T14:38:55;23.90;95.60
18103;DHT22;9178;51.120;6.192;2023-07-13T14:41:22;23.60;97.30
18103;DHT22;9178;51.120;6.192;2023-07-13T14:43:49;23.20;98.70
18103;DHT22;9178;51.120;6.192;2023-07-13T14:46:27;22.80;99.90
18103;DHT22;9178;51.120;6.192;2023-07-13T14:49:02;22.50;99.90
18103;DHT22;9178;51.120;6.192;2023-07-13T14:51:30;22.40;99.90
18103;DHT22;9178;51.120;6.192;2023-07-13T14:53:57;22.20;99.90
18103;DHT22;9178;51.120;6.192;2023-07-13T14:56:25;22.00;99.90
18103;DHT22;9178;51.120;6.192;2023-07-13T14:58:52;21.90;99.90
18103;DHT22;9178;51.120;6.192;2023-07-13T15:01:21;21.80;99.90
18103;DHT22;9178;51.120;6.192;2023-07-13T15:03:51;21.60;99.90
18103;DHT22;9178;51.120;6.192;2023-07-13T15:06:19;21.50;99.90
18103;DHT22;9178;51.120;6.192;2023-07-13T15:08:46;21.50;99.90
18103;DHT22;9178;51.120;6.192;2023-07-13T15:11:13;21.50;99.90
18103;DHT22;9178;51.120;6.192;2023-07-13T15:13:41;21.40;99.90
18103;DHT22;9178;51.120;6.192;2023-07-13T15:16:16;21.40;99.90
18103;DHT22;9178;51.120;6.192;2023-07-13T15:18:46;21.30;99.90
18103;DHT22;9178;51.120;6.192;2023-07-13T15:21:20;21.20;99.90
18103;DHT22;9178;51.120;6.192;2023-07-13T15:23:47;21.10;99.90
18103;DHT22;9178;51.120;6.192;2023-07-13T15:26:15;21.00;99.90
18103;DHT22;9178;51.120;6.192;2023-07-13T15:28:43;20.80;99.90
18103;DHT22;9178;51.120;6.192;2023-07-13T15:31:19;20.80;99.90
18103;DHT22;9178;51.120;6.192;2023-07-13T15:33:49;20.80;99.90
18103;DHT22;9178;51.120;6.192;2023-07-13T15:36:17;20.80;99.90
18103;DHT22;9178;51.120;6.192;2023-07-13T15:38:44;20.80;99.90
18103;DHT22;9178;51.120;6.192;2023-07-13T15:41:17;20.80;99.90
18103;DHT22;9178;51.120;6.192;2023-07-13T15:43:46;20.80;99.90
18103;DHT22;9178;51.120;6.192;2023-07-13T15:46:13;20.80;99.90
18103;DHT22;9178;51.120;6.192;2023-07-13T15:48:41;20.70;99.90
18103;DHT22;9178;51.120;6.192;2023-07-13T15:51:15;20.60;99.90
18103;DHT22;9178;51.120;6.192;2023-07-13T15:53:45;20.70;99.90
18103;DHT22;9178;51.120;6.192;2023-07-13T15:56:19;20.80;99.90
18103;DHT22;9178;51.120;6.192;2023-07-13T15:58:47;21.00;99.90